Nearby METAR Reports

 

KEQY - Monroe, North Carolina, USA
Distance from station: S 11mi, 18km
Updated: Wed, 09/02/2015 7:53am EDT
Clear
Clear
 Wind from W
Wind: W 5 mph , 7 km/h
Temperature: 72°F , 22°C
Dew Point: 68°F , 20°C
Humidity: 88%
Barometer: 30.11 inHg , 1019.6 hPa
Clouds: Clear
Visibility: 10 miles , 16 km
2015/09/02 11:53 KEQY 021153Z AUTO 26004KT 10SM CLR 22/20 A3011 RMK AO2 SLP195 T02220200 10228 20206 53012
KJQF - Concord Reg Arpt, North Carolina, USA
Distance from station: NNW 16mi, 25km
Updated: Wed, 09/02/2015 7:54am EDT
Clear
Clear
 Wind from calm
Wind: Calm
Temperature: 72°F , 22°C
Dew Point: 68°F , 20°C
Humidity: 88%
Barometer: 30.15 inHg , 1021 hPa
Clouds: Clear
Visibility: 10 miles , 16 km
2015/09/02 11:54 KJQF 021154Z 00000KT 10SM CLR 22/20 A3015
 
KCLT - Charlotte, North Carolina, USA
Distance from station: W 20mi, 33km
Updated: Wed, 09/02/2015 7:52am EDT
Mostly cloudy
Mostly cloudy
 Wind from calm
Wind: Calm
Temperature: 73°F , 23°C
Dew Point: 68°F , 20°C
Humidity: 83%
Barometer: 30.12 inHg , 1020 hPa
Clouds: Mostly cloudy
Visibility: 10 miles , 16 km
Cloud details: Mostly cloudy 25000 ft
2015/09/02 11:52 KCLT 021152Z 00000KT 10SM BKN250 23/20 A3012 RMK AO2 SLP191 T02330200 10239 20206 53013
KUZA - Rock Hill, South Carolina, USA
Distance from station: WSW 29mi, 47km
Updated: Wed, 09/02/2015 7:54am EDT
Clear
Clear
 Wind from NNE
Wind: NNE 3 mph , 6 km/h
Temperature: 70°F , 21°C
Dew Point: 68°F , 20°C
Humidity: 94%
Barometer: 30.12 inHg , 1020 hPa
Clouds: Clear
Visibility: 8 miles , 13 km
2015/09/02 11:54 KUZA 021154Z AUTO 02003KT 8SM CLR 21/20 A3012 RMK AO2 SLP188 T02110200 10222 20200 53013
 
KVUJ - Albemarle Stanly, North Carolina, USA
Distance from station: NE 30mi, 48km
Updated: Wed, 09/02/2015 8:35am EDT
Clear
Clear
 Wind from calm
Wind: Calm
Temperature: 73°F , 23°C
Dew Point: 72°F , 22°C
Humidity: 94%
Barometer: 30.15 inHg , 1021 hPa
Clouds: Clear
Visibility: 10 miles , 16 km
2015/09/02 12:35 KVUJ 021235Z AUTO 00000KT 10SM CLR 23/22 A3015 RMK AO2 LTG DSNT SE
KAFP - Wadesboro/Anson, North Carolina, USA
Distance from station: ESE 31mi, 50km
Updated: Wed, 09/02/2015 8:35am EDT
Clear
Clear
 Wind from SW
Wind: SW 3 mph , 6 km/h
Temperature: 73°F , 23°C
Dew Point: 70°F , 21°C
Humidity: 89%
Barometer: 30.10 inHg , 1019.3 hPa
Clouds: Clear
Visibility: 7 miles , 11 km
2015/09/02 12:35 KAFP 021235Z AUTO 22003KT 7SM CLR 23/21 A3010 RMK AO2 T02260207
 
KAKH - Gastonia, North Carolina, USA
Distance from station: W 31mi, 51km
Updated: Wed, 09/02/2015 7:54am EDT
Clear
Clear
 Wind from calm
Wind: Calm
Temperature: 72°F , 22°C
Dew Point: 66°F , 19°C
Humidity: 83%
Barometer: 30.13 inHg , 1020.3 hPa
Clouds: Clear
Visibility: 10 miles , 16 km
2015/09/02 11:54 KAKH 021154Z AUTO 00000KT 10SM CLR 22/19 A3013 RMK AO2 SLP194 T02220194 10222 20200 53014
KRUQ - Salisbury Rowan, North Carolina, USA
Distance from station: N 33mi, 53km
Updated: Wed, 09/02/2015 8:35am EDT
Clear
Clear
 Wind from calm
Wind: Calm
Temperature: 70°F , 21°C
Dew Point: 70°F , 21°C
Humidity: 100%
Barometer: 30.12 inHg , 1020 hPa
Clouds: Clear
Visibility: 10 miles , 16 km
2015/09/02 12:35 KRUQ 021235Z AUTO 00000KT 10SM CLR 21/21 A3012 RMK AO2 T02140206
 
KLKR - Lancaster, South Carolina, USA
Distance from station: SSW 35mi, 57km
Updated: Wed, 09/02/2015 8:35am EDT
Clear
Clear
 Wind from calm
Wind: Calm
Temperature: 73°F , 23°C
Dew Point: 73°F , 23°C
Humidity: 100%
Barometer: 30.12 inHg , 1020 hPa
Clouds: Clear
Visibility: 9 miles , 14 km
2015/09/02 12:35 KLKR 021235Z AUTO 00000KT 9SM CLR 23/23 A3012 RMK AO2
KIPJ - Lincolnton, North Carolina, USA
Distance from station: WNW 39mi, 62km
Updated: Wed, 09/02/2015 8:35am EDT
Clear
Clear
 Wind from calm
Wind: Calm
Temperature: 72°F , 22°C
Dew Point: 68°F , 20°C
Humidity: 88%
Barometer: 30.13 inHg , 1020.3 hPa
Clouds: Clear
Visibility: 10 miles , 16 km
2015/09/02 12:35 KIPJ 021235Z AUTO 00000KT 10SM CLR 22/20 A3013 RMK AO2 T02180201
 
KDCM - Chester Catawba, South Carolina, USA
Distance from station: SW 44mi, 71km
Updated: Wed, 09/02/2015 8:15am EDT
Clear
Clear
 Wind from calm
Wind: Calm
Temperature: 73°F , 23°C
Dew Point: 70°F , 21°C
Humidity: 89%
Barometer: 30.13 inHg , 1020.3 hPa
Clouds: Clear
Visibility: 7 miles , 11 km
2015/09/02 12:15 KDCM 021215Z AUTO 00000KT 7SM CLR 23/21 A3013 RMK AO2
KSVH - Statesville, North Carolina, USA
Distance from station: NNW 44mi, 71km
Updated: Wed, 09/02/2015 8:35am EDT
Clear
Clear
 Wind from calm
Wind: Calm
Temperature: 68°F , 20°C
Dew Point: 66°F , 19°C
Humidity: 94%
Barometer: 30.12 inHg , 1020 hPa
Clouds: Clear
Visibility: 10 miles , 16 km
2015/09/02 12:35 KSVH 021235Z AUTO 00000KT 10SM CLR 20/19 A3012 RMK AO2 T02030191
 
KEXX - Davidson Cty Ap, North Carolina, USA
Distance from station: NNE 45mi, 72km
Updated: Wed, 09/02/2015 8:35am EDT
Clear
Clear
 Wind from calm
Wind: Calm
Temperature: 72°F , 22°C
Dew Point: 70°F , 21°C
Humidity: 94%
Barometer: 30.11 inHg , 1019.6 hPa
Clouds: Clear
Visibility: 7 miles , 11 km
2015/09/02 12:35 KEXX 021235Z AUTO 00000KT 7SM CLR 22/21 A3011 RMK AO2 T02160206
KCQW - Cheraw, South Carolina, USA
Distance from station: SE 49mi, 78km
Updated: Wed, 09/02/2015 8:35am EDT
Clear
Clear
 Wind from W
Wind: W 3 mph , 6 km/h
Temperature: 73°F , 23°C
Dew Point: 70°F , 21°C
Humidity: 89%
Barometer: 30.09 inHg , 1019 hPa
Clouds: Clear
Visibility: 9 miles , 14 km
2015/09/02 12:35 KCQW 021235Z AUTO 27003KT 9SM CLR 23/21 A3009 RMK AO2 LTG DSNT SE